Tonica, IL (61370)

8:17 PM CST on February 13, 2016 (GMT -0600)
Baker Lake | | Change Station
CLOSE
Current Station
Personal Weather Station
Location: Peru, IL
Elevation: 652 ft
Nearby Weather Stations
Active Advisory: Winter Weather Advisory

Elev 652 ft 41.34 °N, 89.11 °W | Updated 2 minutes ago

Clear
Clear
15.2 °F
Feels Like 15 °F
N
0.0
Wind Variable Wind from North
Gusts 0.0 mph

Today
High -- | Low -- °F
--% Chance of Precip.
Yesterday
High -- | Low -- °F
Precip. -- in
Pressure 30.50 in
Visibility 10.0 miles
Clouds Clear
Windchill 15 °F
Dew Point 3 °F
Humidity 58%
Rainfall in
Snow Depth Not available.
6:54 AM 5:27 PM
Waxing Crescent, 36% visible
METAR KVYS 140155Z AUTO 00000KT 10SM CLR M09/M16 A3050 RMK AO2 T10871163
Pressure 30.50 in
Visibility 10.0 miles
Clouds Clear
Windchill 15 °F
Dew Point 3 °F
Humidity 58%
Rainfall in
Snow Depth Not available.
6:54 AM 5:27 PM
Waxing Crescent, 36% visible
METAR KVYS 140155Z AUTO 00000KT 10SM CLR M09/M16 A3050 RMK AO2 T10871163

10-Day Weather Forecast

Almanac

Astronomy

Feb. 13, 2016 Rise Set
Actual Time
Civil Twilight
Nautical Twilight
Astronomical Twilight
Moon
Length of Visible Light
Length of Day
Tomorrow will be .
, % of the Moon is Illuminated

Today's Extremes

State Highs State Lows

Community

WunderPhotos

Upload Photos

1,892,726 photos uploaded!

WunderBlog® & News

Nearby

Air Quality

  Air Quality AQ Index Pollutant
Not available.

Snow Depth

Station Depth Elevation

Earthquake Activity

City Distance Mag. Time & Date
Minimum magnitude displayed is 2.5.

Coastal Water Temperatures

Place Temperature

Stations

Nearby Weather Stations

Station Location Temp. Windchill Dew Point Humidity Wind Precip. Elev Updated Type
                   

Watches & Warnings

Winter Weather Advisory
Issued: 2:29 PM CST Feb. 13, 2016 – National Weather Service

... Winter Weather Advisory in effect from 6 am Sunday to midnight
CST Sunday night...

The National Weather Service in Chicago has issued a Winter
Weather Advisory for snow... which is in effect from 6 am Sunday
to midnight CST Sunday night.

* Timing... Sunday morning through Sunday evening.

* Snow accumulation... 3 to 5 inches storm total.

* Winds... southeast 15 to 25 mph.

* Main impact... snow accumulation on untreated roads and surfaces
will make travel hazardous. Blowing and drifting snow will also
be possible.

Precautionary/preparedness actions...

A Winter Weather Advisory for snow means that periods of snow
will cause primarily travel difficulties. Be prepared for snow
covered roads and limited visibilities... and use caution while
driving.